Time;durP1;ratioP1;P1;durP2;ratioP2;P2;SDS_P1;SDS_P2;PMS_P1;PMS_P2;Temp;Humidity;BMP_temperature;BMP_pressure;BME280_temperature;BME280_humidity;BME280_pressure;Samples;Min_cycle;Max_cycle;Signal;HPM_P1;HPM_P2
2022/10/15 00:02:08;;;;;;;8.23;1.20;;;;;;;8.76;100.00;99184.19;4997325;28;20029;-82
2022/10/15 00:04:34;;;;;;;3.53;1.10;;;;;;;8.82;100.00;99179.88;5011312;28;20087;-79
2022/10/15 00:07:00;;;;;;;3.05;1.20;;;;;;;8.85;100.00;99168.75;5012211;28;20040;-82
2022/10/15 00:09:25;;;;;;;1.70;1.40;;;;;;;8.85;100.00;99168.75;5010674;28;20037;-79
2022/10/15 00:11:51;;;;;;;4.55;1.80;;;;;;;8.72;100.00;99158.81;5029538;28;20116;-80
2022/10/15 00:14:16;;;;;;;3.72;0.95;;;;;;;8.71;100.00;99163.34;5013875;28;20111;-79
2022/10/15 00:16:42;;;;;;;16.90;2.42;;;;;;;8.63;100.00;99160.06;5026573;28;20065;-81
2022/10/15 00:19:09;;;;;;;6.03;1.42;;;;;;;8.45;100.00;99147.22;5000477;28;20069;-80
2022/10/15 00:21:35;;;;;;;3.13;1.27;;;;;;;8.54;100.00;99183.50;5001486;28;20468;-77
2022/10/15 00:24:01;;;;;;;1.63;0.90;;;;;;;8.54;100.00;99212.97;5009514;28;20040;-77
2022/10/15 00:26:28;;;;;;;0.47;0.47;;;;;;;8.37;100.00;99201.75;4989063;28;20037;-77
2022/10/15 00:28:56;;;;;;;0.40;0.40;;;;;;;8.19;100.00;99188.91;5025078;28;20399;-77
2022/10/15 00:31:23;;;;;;;0.50;0.50;;;;;;;8.02;100.00;99172.34;5025842;28;20094;-77
2022/10/15 00:33:55;;;;;;;0.52;0.50;;;;;;;7.98;100.00;99183.63;5029892;28;20091;-80
2022/10/15 00:36:24;;;;;;;0.40;0.40;;;;;;;7.92;100.00;99185.25;5023767;28;20087;-79
2022/10/15 00:38:51;;;;;;;0.40;0.40;;;;;;;7.92;100.00;99196.78;5013085;28;20037;-78
2022/10/15 00:41:20;;;;;;;0.30;0.30;;;;;;;7.90;100.00;99200.69;5025767;28;20038;-78
2022/10/15 00:43:54;;;;;;;0.30;0.30;;;;;;;7.89;100.00;99194.50;5006053;28;20037;-78
2022/10/15 00:46:37;;;;;;;0.40;0.40;;;;;;;7.91;100.00;99221.91;4994252;28;20096;-78
2022/10/15 00:49:25;;;;;;;0.30;0.30;;;;;;;7.93;100.00;99230.53;5009140;28;20132;-79
2022/10/15 00:51:57;;;;;;;0.45;0.40;;;;;;;7.93;100.00;99219.84;5025408;28;20491;-77
2022/10/15 00:54:24;;;;;;;0.40;0.40;;;;;;;7.89;100.00;99215.09;5015705;28;20069;-78
2022/10/15 00:56:51;;;;;;;0.55;0.40;;;;;;;7.80;100.00;99200.19;5011022;28;20546;-78
2022/10/15 00:59:19;;;;;;;0.40;0.40;;;;;;;7.69;100.00;99220.28;5019811;28;20052;-79
2022/10/15 01:01:44;;;;;;;0.40;0.40;;;;;;;7.61;100.00;99236.50;5010232;28;20422;-78
2022/10/15 01:04:10;;;;;;;0.40;0.40;;;;;;;7.60;100.00;99234.84;4991342;28;20129;-82
2022/10/15 01:06:36;;;;;;;1.38;1.38;;;;;;;7.54;100.00;99235.59;4989699;28;20052;-81
2022/10/15 01:09:05;;;;;;;0.40;0.40;;;;;;;7.46;100.00;99189.28;5025714;28;20033;-78
2022/10/15 01:11:42;;;;;;;0.40;0.40;;;;;;;7.54;100.00;99171.41;5025380;28;20037;-79
2022/10/15 01:14:19;;;;;;;0.30;0.30;;;;;;;7.49;100.00;99170.16;5005553;28;20041;-80
2022/10/15 01:16:49;;;;;;;0.40;0.40;;;;;;;7.40;100.00;99144.56;5014240;28;20124;-79
2022/10/15 01:19:33;;;;;;;0.30;0.30;;;;;;;7.46;100.00;99172.38;5027557;28;20116;-79
2022/10/15 01:22:05;;;;;;;0.35;0.35;;;;;;;7.44;100.00;99171.78;5013142;28;20091;-78
2022/10/15 01:25:00;;;;;;;0.30;0.30;;;;;;;7.44;100.00;99155.72;5008576;28;20047;-78
2022/10/15 01:27:32;;;;;;;0.30;0.30;;;;;;;7.39;100.00;99180.38;5033046;28;20033;-81
2022/10/15 01:30:13;;;;;;;0.32;0.32;;;;;;;7.42;100.00;99161.25;5028556;28;20467;-80
2022/10/15 01:33:03;;;;;;;0.40;0.40;;;;;;;7.38;100.00;99119.91;5011066;28;20502;-81
2022/10/15 01:35:38;;;;;;;0.40;0.40;;;;;;;7.30;100.00;99101.31;5021798;28;20044;-82
2022/10/15 01:38:09;;;;;;;0.40;0.40;;;;;;;7.24;100.00;99044.09;5023728;28;20048;-80
2022/10/15 01:40:47;;;;;;;0.40;0.40;;;;;;;7.15;100.00;98991.03;5023767;28;20068;-77
2022/10/15 01:43:18;;;;;;;0.30;0.30;;;;;;;7.14;100.00;99005.38;5042577;28;20041;-78
2022/10/15 01:45:55;;;;;;;0.40;0.40;;;;;;;6.99;100.00;99042.94;5007026;28;20040;-78
2022/10/15 01:48:21;;;;;;;0.30;0.30;;;;;;;6.90;100.00;99049.44;5026632;28;20065;-76
2022/10/15 01:50:50;;;;;;;0.40;0.40;;;;;;;6.66;100.00;99048.81;5028803;28;20060;-79
2022/10/15 01:53:24;;;;;;;0.40;0.40;;;;;;;6.60;100.00;99054.94;5007502;28;20037;-79
2022/10/15 01:55:53;;;;;;;0.30;0.30;;;;;;;6.51;100.00;99058.75;5003696;28;20085;-77
2022/10/15 01:58:20;;;;;;;0.40;0.40;;;;;;;6.39;100.00;99061.94;5026768;28;20051;-77
2022/10/15 02:00:46;;;;;;;0.40;0.40;;;;;;;6.32;100.00;99052.19;5028117;28;20036;-78
2022/10/15 02:03:11;;;;;;;0.30;0.30;;;;;;;6.36;100.00;99064.16;5027029;28;20056;-78
2022/10/15 02:05:41;;;;;;;0.30;0.30;;;;;;;6.42;100.00;99066.06;5025339;28;20463;-77
2022/10/15 02:08:19;;;;;;;0.40;0.40;;;;;;;6.59;100.00;99082.66;5019638;28;20034;-78
2022/10/15 02:11:05;;;;;;;0.40;0.40;;;;;;;6.79;100.00;99082.84;5012049;28;20026;-77
2022/10/15 02:13:51;;;;;;;0.40;0.40;;;;;;;6.94;100.00;99086.25;5033903;28;20034;-78
2022/10/15 02:16:27;;;;;;;0.40;0.40;;;;;;;6.98;100.00;99065.31;5018506;28;20043;-78
2022/10/15 02:19:02;;;;;;;0.43;0.43;;;;;;;6.97;100.00;99069.84;5007744;28;20527;-80
2022/10/15 02:21:50;;;;;;;0.30;0.30;;;;;;;6.92;100.00;99061.56;5009308;28;20479;-77
2022/10/15 02:24:28;;;;;;;0.40;0.40;;;;;;;6.85;100.00;99070.56;5025576;28;20050;-77
2022/10/15 02:26:56;;;;;;;2.30;1.02;;;;;;;6.78;100.00;99075.84;5007391;28;20098;-79
2022/10/15 02:29:23;;;;;;;0.40;0.40;;;;;;;6.63;100.00;99056.41;5007542;28;20033;-79
2022/10/15 02:31:50;;;;;;;0.40;0.40;;;;;;;6.64;100.00;99079.41;5006088;28;20036;-79
2022/10/15 02:34:20;;;;;;;0.40;0.40;;;;;;;6.56;100.00;99073.19;4991819;28;20038;-78
2022/10/15 02:36:46;;;;;;;0.40;0.40;;;;;;;6.41;100.00;99048.41;5024791;28;20037;-76
2022/10/15 02:39:16;;;;;;;0.35;0.35;;;;;;;6.42;100.00;99062.56;5011086;28;20029;-77
2022/10/15 02:41:42;;;;;;;0.40;0.40;;;;;;;6.35;100.00;99062.50;4993964;28;20183;-77
2022/10/15 02:44:08;;;;;;;0.40;0.40;;;;;;;6.26;100.00;99060.97;4993237;28;20383;-78
2022/10/15 02:46:36;;;;;;;0.40;0.40;;;;;;;6.24;100.00;99065.66;5004234;28;20029;-76
2022/10/15 02:49:01;;;;;;;0.40;0.40;;;;;;;6.11;100.00;99061.88;5027675;28;20045;-78
2022/10/15 02:51:31;;;;;;;0.40;0.40;;;;;;;6.14;100.00;99058.81;5024689;28;20033;-76
2022/10/15 02:53:56;;;;;;;0.40;0.40;;;;;;;6.21;100.00;99050.03;5008050;28;20060;-78
2022/10/15 02:56:22;;;;;;;0.30;0.30;;;;;;;6.18;100.00;99053.91;5005889;28;20025;-77
2022/10/15 02:58:48;;;;;;;0.40;0.40;;;;;;;6.20;100.00;99057.22;4991777;28;20041;-80
2022/10/15 03:01:13;;;;;;;0.35;0.35;;;;;;;6.20;100.00;99051.06;4988145;28;20549;-79
2022/10/15 03:03:39;;;;;;;0.40;0.40;;;;;;;6.27;100.00;99055.47;5044782;28;20033;-78
2022/10/15 03:06:05;;;;;;;0.40;0.40;;;;;;;6.26;100.00;99048.44;5014523;28;20045;-76
2022/10/15 03:08:30;;;;;;;0.40;0.40;;;;;;;6.13;100.00;99046.47;4998378;28;20064;-76
2022/10/15 03:11:00;;;;;;;0.50;0.50;;;;;;;6.02;100.00;99052.31;5030694;28;20376;-80
2022/10/15 03:13:26;;;;;;;0.40;0.40;;;;;;;5.81;100.00;99026.38;5014762;28;20041;-79
2022/10/15 03:15:51;;;;;;;0.50;0.50;;;;;;;5.77;100.00;99025.13;5014513;28;20497;-78
2022/10/15 03:18:17;;;;;;;0.40;0.40;;;;;;;5.76;100.00;99036.78;5029120;28;20021;-78
2022/10/15 03:20:43;;;;;;;0.40;0.40;;;;;;;5.70;100.00;99034.88;5014889;28;20486;-78
2022/10/15 03:23:09;;;;;;;0.40;0.40;;;;;;;5.69;100.00;99034.06;4996508;28;20452;-82
2022/10/15 03:25:34;;;;;;;0.30;0.30;;;;;;;5.69;100.00;99028.72;5031716;28;20028;-78
2022/10/15 03:28:00;;;;;;;0.40;0.40;;;;;;;5.63;100.00;99024.09;5013341;28;20426;-79
2022/10/15 03:30:26;;;;;;;0.30;0.30;;;;;;;5.55;100.00;99004.72;5012712;28;20483;-79
2022/10/15 03:32:51;;;;;;;0.30;0.30;;;;;;;5.58;100.00;99013.19;5012135;28;20383;-77
2022/10/15 03:35:17;;;;;;;0.40;0.40;;;;;;;5.52;100.00;99008.59;5013490;28;20110;-81
2022/10/15 03:37:43;;;;;;;0.30;0.30;;;;;;;5.54;100.00;99003.09;5028344;28;20052;-79
2022/10/15 03:40:09;;;;;;;0.40;0.40;;;;;;;5.62;100.00;98993.13;4996618;28;20376;-78
2022/10/15 03:42:35;;;;;;;0.40;0.40;;;;;;;5.73;100.00;99002.50;5003551;28;20472;-78
2022/10/15 03:45:00;;;;;;;0.40;0.40;;;;;;;5.85;100.00;98997.50;5029687;28;20076;-78
2022/10/15 03:47:26;;;;;;;0.30;0.30;;;;;;;6.00;100.00;99000.16;5013103;28;20041;-79
2022/10/15 03:49:52;;;;;;;0.30;0.30;;;;;;;6.11;100.00;98996.97;5012625;28;20368;-80
2022/10/15 03:52:17;;;;;;;0.30;0.30;;;;;;;6.13;100.00;98985.09;5029702;28;20037;-79
2022/10/15 03:54:43;;;;;;;0.40;0.40;;;;;;;6.22;100.00;99007.16;5025961;28;20029;-79
2022/10/15 03:57:08;;;;;;;0.40;0.40;;;;;;;6.21;100.00;99008.16;5030432;28;20479;-78
2022/10/15 03:59:34;;;;;;;0.40;0.40;;;;;;;6.17;100.00;98990.88;4996774;28;20037;-79
2022/10/15 04:02:00;;;;;;;0.40;0.40;;;;;;;6.11;100.00;98983.63;5028473;28;20036;-82
2022/10/15 04:04:25;;;;;;;0.40;0.40;;;;;;;6.09;100.00;98981.16;4996605;28;20057;-78
2022/10/15 04:06:51;;;;;;;0.40;0.40;;;;;;;6.17;100.00;98977.56;5029900;28;20048;-78
2022/10/15 04:09:17;;;;;;;0.40;0.40;;;;;;;6.31;100.00;98999.84;5026635;28;20033;-80
2022/10/15 04:11:42;;;;;;;0.40;0.40;;;;;;;6.38;100.00;99003.41;5006355;28;20151;-79
2022/10/15 04:14:08;;;;;;;0.40;0.40;;;;;;;6.39;100.00;98999.72;5029131;28;20128;-78
2022/10/15 04:16:33;;;;;;;0.30;0.30;;;;;;;6.46;100.00;98994.44;4995522;28;20033;-78
2022/10/15 04:18:59;;;;;;;0.40;0.40;;;;;;;6.46;100.00;98997.94;5013174;28;20380;-78
2022/10/15 04:21:25;;;;;;;0.30;0.30;;;;;;;6.44;100.00;99002.63;4991509;28;20046;-80
2022/10/15 04:23:50;;;;;;;0.40;0.40;;;;;;;6.51;100.00;99027.56;5009970;28;20055;-78
2022/10/15 04:26:16;;;;;;;0.30;0.30;;;;;;;6.51;100.00;99022.22;5028205;28;20721;-79
2022/10/15 04:28:46;;;;;;;0.40;0.40;;;;;;;6.49;100.00;99002.88;5028317;28;20442;-80
2022/10/15 04:31:12;;;;;;;0.40;0.40;;;;;;;6.46;100.00;98976.56;5013653;28;20151;-77
2022/10/15 04:33:37;;;;;;;0.40;0.40;;;;;;;6.44;100.00;98985.78;5031036;28;20767;-79
2022/10/15 04:36:06;;;;;;;0.40;0.40;;;;;;;6.43;100.00;99001.00;5009492;28;20033;-80
2022/10/15 04:38:32;;;;;;;0.40;0.40;;;;;;;6.41;100.00;98989.66;5026776;28;20049;-80
2022/10/15 04:41:03;;;;;;;0.40;0.40;;;;;;;6.30;100.00;98988.34;5025628;28;20069;-80
2022/10/15 04:43:32;;;;;;;0.40;0.40;;;;;;;6.23;100.00;98981.28;5008625;28;20116;-80
2022/10/15 04:45:59;;;;;;;0.40;0.40;;;;;;;6.20;100.00;98977.16;5025447;28;20032;-81
2022/10/15 04:48:27;;;;;;;0.30;0.30;;;;;;;6.19;100.00;98969.34;4996015;28;20463;-79
2022/10/15 04:50:52;;;;;;;0.40;0.40;;;;;;;6.21;100.00;98973.47;5025993;28;20108;-78
2022/10/15 04:53:18;;;;;;;0.38;0.38;;;;;;;6.28;100.00;98968.19;5030089;28;20190;-79
2022/10/15 04:55:44;;;;;;;0.40;0.40;;;;;;;6.30;100.00;98971.50;5028158;28;20510;-79
2022/10/15 04:58:10;;;;;;;0.47;0.47;;;;;;;6.32;100.00;98972.13;5010116;28;20041;-78
2022/10/15 05:00:35;;;;;;;0.40;0.40;;;;;;;6.29;100.00;98975.19;4993248;28;20041;-79
2022/10/15 05:03:01;;;;;;;0.40;0.40;;;;;;;6.39;100.00;98981.03;5028198;28;20025;-81
2022/10/15 05:05:27;;;;;;;0.40;0.40;;;;;;;6.40;100.00;98985.34;4994635;28;20359;-77
2022/10/15 05:07:52;;;;;;;0.40;0.40;;;;;;;6.43;100.00;98981.44;5013502;28;20033;-80
2022/10/15 05:10:18;;;;;;;0.40;0.40;;;;;;;6.35;100.00;98953.91;5026360;28;20501;-78
2022/10/15 05:12:43;;;;;;;0.55;0.40;;;;;;;6.32;100.00;98953.44;5012310;28;20021;-77
2022/10/15 05:15:09;;;;;;;0.40;0.40;;;;;;;6.22;100.00;98951.13;5009206;28;20034;-78
2022/10/15 05:17:35;;;;;;;0.38;0.38;;;;;;;6.06;100.00;98954.88;4995514;28;20157;-81
2022/10/15 05:20:00;;;;;;;0.40;0.40;;;;;;;5.90;100.00;98945.25;4998200;28;20049;-78
2022/10/15 05:22:26;;;;;;;0.40;0.40;;;;;;;5.81;100.00;98935.69;5012169;28;20037;-78
2022/10/15 05:24:52;;;;;;;0.40;0.40;;;;;;;5.71;100.00;98937.84;4996383;28;20461;-79
2022/10/15 05:27:17;;;;;;;0.40;0.40;;;;;;;5.59;100.00;98934.03;4994059;28;20037;-79
2022/10/15 05:29:43;;;;;;;0.40;0.40;;;;;;;5.47;100.00;98933.69;5025335;28;20033;-79
2022/10/15 05:32:08;;;;;;;0.30;0.30;;;;;;;5.31;100.00;98925.91;5028020;28;20033;-79
2022/10/15 05:34:34;;;;;;;0.40;0.40;;;;;;;5.25;100.00;98922.97;4988363;28;20380;-78
2022/10/15 05:37:00;;;;;;;0.40;0.40;;;;;;;5.38;100.00;98932.97;4995487;28;20382;-78
2022/10/15 05:39:25;;;;;;;0.40;0.40;;;;;;;5.57;100.00;98939.56;5028199;28;20395;-81
2022/10/15 05:41:52;;;;;;;0.40;0.40;;;;;;;5.82;100.00;98947.19;5011750;28;20026;-78
2022/10/15 05:44:18;;;;;;;0.50;0.50;;;;;;;5.89;100.00;98916.06;5026635;28;20044;-79
2022/10/15 05:46:43;;;;;;;0.40;0.40;;;;;;;6.09;100.00;98926.97;5024239;28;20494;-78
2022/10/15 05:49:09;;;;;;;0.40;0.40;;;;;;;6.16;100.00;98912.66;4993998;28;20057;-79
2022/10/15 05:51:34;;;;;;;0.40;0.40;;;;;;;6.23;100.00;98918.06;5027238;28;20037;-77
2022/10/15 05:54:00;;;;;;;0.40;0.40;;;;;;;6.30;100.00;98924.28;4994878;28;20144;-79
2022/10/15 05:56:26;;;;;;;0.40;0.40;;;;;;;6.35;100.00;98921.00;5010796;28;20040;-78
2022/10/15 05:58:52;;;;;;;0.40;0.40;;;;;;;6.47;100.00;98932.81;5009330;28;20132;-80
2022/10/15 06:01:18;;;;;;;0.40;0.40;;;;;;;6.54;100.00;98928.38;5008935;28;20121;-78
2022/10/15 06:03:46;;;;;;;0.40;0.40;;;;;;;6.59;100.00;98919.78;5023172;28;20033;-78
2022/10/15 06:06:23;;;;;;;0.50;0.50;;;;;;;6.64;100.00;98916.50;5012331;28;20302;-77
2022/10/15 06:08:50;;;;;;;0.50;0.50;;;;;;;6.68;100.00;98909.75;5003020;28;21079;-82
2022/10/15 06:11:16;;;;;;;0.40;0.40;;;;;;;6.71;100.00;98912.84;5025313;28;20087;-77
2022/10/15 06:13:43;;;;;;;0.40;0.40;;;;;;;6.62;100.00;98892.69;5008000;28;20044;-76
2022/10/15 06:16:09;;;;;;;0.40;0.40;;;;;;;6.71;100.00;98907.50;5027799;28;20026;-78
2022/10/15 06:18:35;;;;;;;0.38;0.38;;;;;;;6.70;100.00;98911.22;5011139;28;20034;-80
2022/10/15 06:21:01;;;;;;;0.35;0.35;;;;;;;6.72;100.00;98913.66;5030112;28;20147;-78
2022/10/15 06:23:27;;;;;;;0.40;0.40;;;;;;;6.68;100.00;98893.72;4988932;28;20476;-81
2022/10/15 06:25:53;;;;;;;0.40;0.40;;;;;;;6.64;100.00;98889.78;5020297;28;20904;-79
2022/10/15 06:28:19;;;;;;;0.30;0.30;;;;;;;6.65;100.00;98878.94;5027387;28;20326;-77
2022/10/15 06:30:44;;;;;;;0.40;0.40;;;;;;;6.71;100.00;98882.66;5025203;28;20033;-77
2022/10/15 06:33:10;;;;;;;0.40;0.40;;;;;;;6.69;100.00;98876.69;5021000;28;20056;-78
2022/10/15 06:35:36;;;;;;;0.40;0.40;;;;;;;6.71;100.00;98882.66;4996984;28;21027;-79
2022/10/15 06:38:05;;;;;;;0.38;0.38;;;;;;;6.75;100.00;98897.28;5004211;28;20069;-78
2022/10/15 06:40:31;;;;;;;0.50;0.50;;;;;;;6.71;100.00;98891.47;5014916;28;20567;-77
2022/10/15 06:43:09;;;;;;;0.47;0.47;;;;;;;6.74;100.00;98876.91;4993573;28;20069;-83
2022/10/15 06:45:37;;;;;;;0.40;0.40;;;;;;;6.70;100.00;98863.13;5030429;28;20524;-79
2022/10/15 06:48:03;;;;;;;0.50;0.50;;;;;;;6.77;100.00;98876.50;4998846;28;20033;-79
2022/10/15 06:50:31;;;;;;;0.40;0.40;;;;;;;6.79;100.00;98869.13;5032221;28;20097;-78
2022/10/15 06:52:59;;;;;;;0.40;0.40;;;;;;;6.78;100.00;98856.81;5015135;28;20034;-78
2022/10/15 06:55:27;;;;;;;0.30;0.30;;;;;;;6.75;100.00;98836.66;4999565;28;20361;-82
2022/10/15 06:57:54;;;;;;;0.40;0.40;;;;;;;6.70;100.00;98840.94;5031038;28;20043;-78
2022/10/15 07:00:22;;;;;;;0.40;0.40;;;;;;;6.68;100.00;98830.47;5013291;28;20496;-79
2022/10/15 07:02:48;;;;;;;0.40;0.40;;;;;;;6.68;100.00;98832.31;5029186;28;20029;-78
2022/10/15 07:05:14;;;;;;;0.40;0.40;;;;;;;6.72;100.00;98846.91;5059081;28;20467;-76
2022/10/15 07:07:40;;;;;;;0.40;0.40;;;;;;;6.71;100.00;98826.56;4993765;28;20108;-77
2022/10/15 07:10:06;;;;;;;0.47;0.47;;;;;;;6.80;100.00;98822.69;5005674;28;20171;-81
2022/10/15 07:12:32;;;;;;;0.40;0.40;;;;;;;6.80;100.00;98809.34;5023488;28;20467;-79
2022/10/15 07:14:57;;;;;;;0.40;0.40;;;;;;;6.85;100.00;98828.25;5025670;28;20037;-79
2022/10/15 07:17:23;;;;;;;0.40;0.40;;;;;;;6.90;100.00;98847.19;5007825;28;20041;-79
2022/10/15 07:19:49;;;;;;;0.50;0.50;;;;;;;6.88;100.00;98857.28;5028337;28;20056;-80
2022/10/15 07:22:14;;;;;;;2.22;0.50;;;;;;;6.88;100.00;98851.94;5030323;28;20037;-78
2022/10/15 07:24:40;;;;;;;0.47;0.47;;;;;;;6.89;100.00;98852.75;5011943;28;20371;-81
2022/10/15 07:27:06;;;;;;;16.20;0.82;;;;;;;6.96;100.00;98864.28;5007945;28;20384;-78
2022/10/15 07:29:31;;;;;;;1.55;0.50;;;;;;;7.07;100.00;98887.78;5021896;28;20037;-81
2022/10/15 07:31:58;;;;;;;1.45;0.47;;;;;;;7.19;100.00;98866.63;5029353;28;20033;-79
2022/10/15 07:34:24;;;;;;;0.40;0.40;;;;;;;7.31;100.00;98880.25;5011171;28;21476;-80
2022/10/15 07:36:49;;;;;;;0.40;0.40;;;;;;;7.36;100.00;98867.13;5030430;28;20033;-81
2022/10/15 07:39:18;;;;;;;0.50;0.50;;;;;;;7.47;100.00;98861.19;4997156;28;20065;-79
2022/10/15 07:41:45;;;;;;;3.08;0.85;;;;;;;7.54;100.00;98863.84;5014079;28;20037;-79
2022/10/15 07:44:10;;;;;;;1.83;0.93;;;;;;;7.54;100.00;98862.03;5013550;28;20038;-79
2022/10/15 07:46:36;;;;;;;1.58;1.00;;;;;;;7.56;100.00;98848.44;5012833;28;20783;-79
2022/10/15 07:49:02;;;;;;;0.82;0.50;;;;;;;7.49;100.00;98859.94;4994613;28;20491;-79
2022/10/15 07:51:27;;;;;;;0.75;0.75;;;;;;;7.64;100.00;98850.91;5058691;28;20068;-79
2022/10/15 07:53:54;;;;;;;1.30;0.70;;;;;;;7.80;100.00;98863.88;5022604;28;20057;-80
2022/10/15 07:56:19;;;;;;;1.08;0.60;;;;;;;7.96;100.00;98862.66;5032188;28;20055;-78
2022/10/15 07:58:50;;;;;;;0.40;0.40;;;;;;;8.09;100.00;98848.47;4998119;28;20476;-77
2022/10/15 08:01:18;;;;;;;1.27;0.65;;;;;;;8.11;100.00;98846.41;5004132;28;20072;-79
2022/10/15 08:03:44;;;;;;;0.40;0.40;;;;;;;8.13;100.00;98857.75;5027309;28;20652;-79
2022/10/15 08:06:10;;;;;;;1.08;0.40;;;;;;;8.06;100.00;98860.41;5026694;28;20127;-79
2022/10/15 08:08:59;;;;;;;0.45;0.45;;;;;;;8.11;100.00;98873.19;4995891;28;20532;-78
2022/10/15 08:11:24;;;;;;;0.30;0.30;;;;;;;8.00;100.00;98857.75;5009765;28;20468;-78
2022/10/15 08:13:51;;;;;;;1.13;0.50;;;;;;;7.98;100.00;98851.78;5025967;28;20029;-79
2022/10/15 08:16:19;;;;;;;0.47;0.47;;;;;;;7.91;100.00;98835.69;4990214;28;20057;-81
2022/10/15 08:18:44;;;;;;;0.70;0.70;;;;;;;8.00;100.00;98852.41;5004177;28;20184;-79
2022/10/15 08:21:11;;;;;;;0.40;0.40;;;;;;;8.00;100.00;98844.38;4987950;28;20133;-76
2022/10/15 08:23:37;;;;;;;0.40;0.40;;;;;;;7.97;100.00;98831.41;4992132;28;20041;-76
2022/10/15 08:26:03;;;;;;;0.40;0.40;;;;;;;8.05;100.00;98833.88;5011348;28;20115;-78
2022/10/15 08:28:32;;;;;;;0.50;0.50;;;;;;;7.91;100.00;98782.19;4993938;28;20076;-77
2022/10/15 08:31:18;;;;;;;0.40;0.40;;;;;;;8.33;100.00;98812.19;5007281;28;20069;-83
2022/10/15 08:33:45;;;;;;;0.38;0.38;;;;;;;8.41;100.00;98821.91;4992285;28;20036;-78
2022/10/15 08:36:10;;;;;;;0.40;0.40;;;;;;;8.44;100.00;98842.91;5013700;28;20030;-81
2022/10/15 08:38:36;;;;;;;0.30;0.30;;;;;;;8.32;100.00;98830.13;5002122;28;20045;-81
2022/10/15 08:41:05;;;;;;;0.40;0.40;;;;;;;8.40;100.00;98839.81;5028869;28;20584;-80
2022/10/15 08:43:37;;;;;;;0.40;0.40;;;;;;;8.50;100.00;98844.75;5029069;28;20026;-80
2022/10/15 08:46:17;;;;;;;0.30;0.30;;;;;;;8.49;100.00;98832.38;5017318;28;20057;-79
2022/10/15 08:48:46;;;;;;;0.40;0.40;;;;;;;8.56;100.00;98842.06;5006435;28;20037;-78
2022/10/15 08:51:22;;;;;;;0.40;0.40;;;;;;;8.63;100.00;98846.59;5010797;28;20037;-78
2022/10/15 08:53:56;;;;;;;0.40;0.40;;;;;;;8.66;100.00;98836.25;5013397;28;20053;-79
2022/10/15 08:56:39;;;;;;;0.35;0.35;;;;;;;8.75;100.00;98829.63;4990483;28;20071;-80
2022/10/15 08:59:24;;;;;;;0.88;0.88;;;;;;;8.87;100.00;98834.34;5018137;28;20029;-81
2022/10/15 09:02:24;;;;;;;0.50;0.50;;;;;;;8.97;100.00;98845.41;5005755;28;20056;-81
2022/10/15 09:05:21;;;;;;;0.40;0.40;;;;;;;9.07;100.00;98845.78;5020600;28;20091;-80
2022/10/15 09:07:53;;;;;;;0.40;0.40;;;;;;;9.13;100.00;98839.59;5029902;28;20069;-80
2022/10/15 09:10:39;;;;;;;0.43;0.43;;;;;;;9.15;100.00;98828.66;5006349;28;20044;-81
2022/10/15 09:13:26;;;;;;;0.40;0.40;;;;;;;9.06;100.00;98830.75;5021675;28;20090;-82
2022/10/15 09:16:18;;;;;;;0.40;0.40;;;;;;;9.04;100.00;98843.53;4987886;28;20048;-83
2022/10/15 09:18:46;;;;;;;0.43;0.43;;;;;;;8.92;100.00;98842.59;5024748;28;20570;-81
2022/10/15 09:21:12;;;;;;;0.40;0.40;;;;;;;8.77;100.00;98834.78;5010391;28;20041;-82
2022/10/15 09:23:43;;;;;;;0.40;0.40;;;;;;;8.66;100.00;98833.59;5028074;28;20036;-81
2022/10/15 09:26:11;;;;;;;0.47;0.47;;;;;;;8.65;100.00;98837.28;5026479;28;20059;-80
2022/10/15 09:29:11;;;;;;;0.40;0.40;;;;;;;9.29;100.00;98818.66;5025734;28;20479;-80
2022/10/15 09:31:54;;;;;;;0.80;0.80;;;;;;;13.35;100.00;98828.34;5005760;28;20051;-80
2022/10/15 09:34:25;;;;;;;0.70;0.70;;;;;;;15.33;87.72;98809.13;5028364;28;20026;-80
2022/10/15 09:37:02;;;;;;;1.00;1.00;;;;;;;16.78;81.49;98807.34;4996407;28;20033;-81
2022/10/15 09:39:50;;;;;;;2.45;1.08;;;;;;;17.74;76.03;98808.69;5006567;28;20049;-81
2022/10/15 09:42:29;;;;;;;1.10;0.90;;;;;;;18.14;71.81;98802.47;4991975;28;20053;-81
2022/10/15 09:44:58;;;;;;;2.80;1.52;;;;;;;18.61;69.68;98795.03;5011571;28;20041;-81
2022/10/15 09:47:30;;;;;;;1.45;1.27;;;;;;;19.05;67.01;98773.41;5025827;28;20045;-81
2022/10/15 09:49:55;;;;;;;2.25;1.10;;;;;;;19.87;66.83;98796.59;5027403;28;20586;-81
2022/10/15 09:52:44;;;;;;;6.38;2.10;;;;;;;20.00;65.70;98801.41;5008363;28;20052;-79
2022/10/15 09:55:32;;;;;;;7.13;2.13;;;;;;;20.27;65.48;98776.34;5037150;28;20061;-79
2022/10/15 09:58:04;;;;;;;4.35;1.58;;;;;;;19.58;66.16;98791.88;5040508;28;20536;-80
2022/10/15 10:00:51;;;;;;;3.92;1.60;;;;;;;18.16;68.52;98783.16;5026185;28;20025;-81
2022/10/15 10:03:17;;;;;;;1.88;1.15;;;;;;;17.27;73.41;98785.22;5027964;28;20033;-80
2022/10/15 10:05:44;;;;;;;4.82;1.48;;;;;;;15.87;79.24;98783.91;4987790;28;20061;-79
2022/10/15 10:08:20;;;;;;;4.90;1.75;;;;;;;13.40;91.99;98782.53;5007628;28;20030;-81
2022/10/15 10:10:59;;;;;;;2.90;1.27;;;;;;;11.87;100.00;98792.75;5052934;28;20133;-80
2022/10/15 10:13:47;;;;;;;5.15;1.73;;;;;;;10.49;100.00;98808.66;5012767;28;20204;-82
2022/10/15 10:16:14;;;;;;;4.72;1.25;;;;;;;9.72;100.00;98871.69;5029254;28;20048;-83
2022/10/15 10:18:41;;;;;;;6.65;1.35;;;;;;;9.00;100.00;98855.75;5002996;28;20453;-79
2022/10/15 10:21:28;;;;;;;3.55;1.35;;;;;;;8.43;100.00;98823.31;5030547;28;20029;-79
2022/10/15 10:23:53;;;;;;;2.08;1.30;;;;;;;8.25;100.00;98789.13;5026397;28;20401;-79
2022/10/15 10:26:19;;;;;;;3.92;1.33;;;;;;;8.42;100.00;98783.38;5011201;28;20032;-78
2022/10/15 10:28:52;;;;;;;2.42;1.27;;;;;;;9.66;100.00;98790.19;5027025;28;20099;-80
2022/10/15 10:31:29;;;;;;;2.30;1.43;;;;;;;12.91;100.00;98786.69;4987578;28;20033;-78
2022/10/15 10:33:54;;;;;;;0.80;0.80;;;;;;;15.26;86.58;98800.38;5017145;28;20073;-84
2022/10/15 10:36:33;;;;;;;1.02;1.02;;;;;;;17.22;76.84;98796.06;4992352;28;20538;-81
2022/10/15 10:39:14;;;;;;;0.90;0.90;;;;;;;18.44;72.98;98807.06;5009277;28;20041;-80
2022/10/15 10:41:48;;;;;;;0.95;0.95;;;;;;;19.36;70.11;98799.66;5027108;28;20029;-82
2022/10/15 10:44:22;;;;;;;1.13;1.02;;;;;;;20.10;66.56;98797.78;5023360;28;20034;-80
2022/10/15 10:47:11;;;;;;;0.82;0.82;;;;;;;20.79;66.89;98796.53;5026988;28;20135;-84
2022/10/15 10:49:45;;;;;;;1.48;1.10;;;;;;;20.56;63.46;98770.06;5027649;28;20033;-79
2022/10/15 10:52:22;;;;;;;0.75;0.75;;;;;;;19.38;67.06;98784.66;5010814;28;20052;-79
2022/10/15 10:55:18;;;;;;;1.75;0.85;;;;;;;17.20;73.90;98799.06;5008260;28;20387;-80
2022/10/15 10:57:49;;;;;;;1.38;1.27;;;;;;;15.74;82.51;98785.97;5001204;28;20448;-79
2022/10/15 11:00:19;;;;;;;1.40;0.60;;;;;;;14.13;90.56;98774.56;5024934;28;20026;-79
2022/10/15 11:02:45;;;;;;;0.40;0.40;;;;;;;13.05;98.42;98793.47;5022201;28;20044;-80
2022/10/15 11:05:11;;;;;;;0.50;0.50;;;;;;;12.56;100.00;98782.19;4991686;28;20495;-78
2022/10/15 11:07:49;;;;;;;1.98;0.70;;;;;;;12.57;100.00;98785.72;4994870;28;20132;-83
2022/10/15 11:10:21;;;;;;;0.57;0.57;;;;;;;12.10;100.00;98765.03;4994832;28;20037;-78
2022/10/15 11:12:56;;;;;;;1.48;0.65;;;;;;;11.37;100.00;98772.38;5009270;28;20045;-78
2022/10/15 11:16:13;;;;;;;1.15;1.05;;;;;;;11.16;100.00;98765.63;4991914;28;20034;-78
2022/10/15 11:18:51;;;;;;;0.70;0.70;;;;;;;11.61;100.00;98761.66;5004569;28;20124;-80
2022/10/15 11:21:38;;;;;;;0.70;0.70;;;;;;;12.03;100.00;98762.44;5024789;28;20034;-79
2022/10/15 11:24:06;;;;;;;3.95;1.55;;;;;;;12.03;100.00;98767.00;5030083;28;20439;-79
2022/10/15 11:27:00;;;;;;;1.45;0.82;;;;;;;12.31;100.00;98761.72;5007600;28;20072;-81
2022/10/15 11:29:54;;;;;;;0.68;0.68;;;;;;;12.59;100.00;98748.56;5056809;28;20030;-80
2022/10/15 11:32:35;;;;;;;0.60;0.60;;;;;;;12.62;100.00;98753.47;5006433;28;20606;-79
2022/10/15 11:35:34;;;;;;;0.88;0.85;;;;;;;12.56;100.00;98749.84;5029594;28;20069;-84
2022/10/15 11:38:14;;;;;;;1.05;0.90;;;;;;;12.52;100.00;98743.31;5028990;28;20091;-80
2022/10/15 11:41:17;;;;;;;1.10;0.98;;;;;;;12.47;100.00;98753.97;5005595;28;20029;-81
2022/10/15 11:43:47;;;;;;;0.40;0.40;;;;;;;12.46;100.00;98744.25;5028927;28;20023;-80
2022/10/15 11:46:41;;;;;;;0.50;0.50;;;;;;;12.52;100.00;98744.13;4989659;28;20064;-81
2022/10/15 11:49:28;;;;;;;0.60;0.60;;;;;;;12.65;98.99;98721.47;5025088;28;20280;-79